createdAt,value
2022-12-03T00:02:13.376Z,19.98
2022-12-03T00:04:40.478Z,21.02
2022-12-03T00:07:07.228Z,26.42
2022-12-03T00:09:33.916Z,28.23
2022-12-03T00:12:00.612Z,28.02
2022-12-03T00:14:27.581Z,31.40
2022-12-03T00:16:54.401Z,27.02
2022-12-03T00:19:21.148Z,24.52
2022-12-03T00:21:47.911Z,23.37
2022-12-03T00:24:14.594Z,26.15
2022-12-03T00:26:41.487Z,29.88
2022-12-03T00:29:08.352Z,29.20
2022-12-03T00:31:35.216Z,23.65
2022-12-03T00:34:02.070Z,19.30
2022-12-03T00:36:28.798Z,21.42
2022-12-03T00:38:55.557Z,28.55
2022-12-03T00:41:22.263Z,28.23
2022-12-03T00:43:48.945Z,30.30
2022-12-03T00:46:20.948Z,28.97
2022-12-03T00:48:48.181Z,30.85
2022-12-03T00:51:14.996Z,27.50
2022-12-03T00:53:41.665Z,24.75
2022-12-03T00:56:08.933Z,23.73
2022-12-03T00:58:35.928Z,23.13
2022-12-03T01:01:02.649Z,19.48
2022-12-03T01:03:29.358Z,27.00
2022-12-03T01:05:56.213Z,20.83
2022-12-03T01:08:22.876Z,28.35
2022-12-03T01:10:49.620Z,28.33
2022-12-03T01:13:16.396Z,22.50
2022-12-03T01:15:43.325Z,22.88
2022-12-03T01:18:10.131Z,24.27
2022-12-03T01:20:38.484Z,26.55
2022-12-03T01:23:05.574Z,22.43
2022-12-03T01:25:32.375Z,23.80
2022-12-03T01:27:59.148Z,20.92
2022-12-03T01:30:25.909Z,22.48
2022-12-03T01:32:52.778Z,22.20
2022-12-03T01:35:19.643Z,26.37
2022-12-03T01:37:46.339Z,19.38
2022-12-03T01:40:19.787Z,28.13
2022-12-03T01:42:46.570Z,23.98
2022-12-03T01:45:22.455Z,26.85
2022-12-03T01:47:49.357Z,26.50
2022-12-03T01:50:23.000Z,20.52
2022-12-03T01:52:50.000Z,19.05
2022-12-03T01:55:20.360Z,20.52
2022-12-03T01:57:53.741Z,18.27
2022-12-03T02:00:23.400Z,27.83
2022-12-03T02:02:53.555Z,21.92
2022-12-03T02:05:26.479Z,29.40
2022-12-03T02:07:54.099Z,29.15
2022-12-03T02:10:28.124Z,27.85
2022-12-03T02:13:01.135Z,23.43
2022-12-03T02:15:27.929Z,21.23
2022-12-03T02:17:55.573Z,26.00
2022-12-03T02:20:22.619Z,20.48
2022-12-03T02:23:10.880Z,23.95
2022-12-03T02:25:38.586Z,23.43
2022-12-03T02:28:07.904Z,25.80
2022-12-03T02:30:49.717Z,23.58
2022-12-03T02:33:16.478Z,25.42
2022-12-03T02:35:43.265Z,26.58
2022-12-03T02:38:12.837Z,26.20
2022-12-03T02:40:39.937Z,26.70
2022-12-03T02:43:06.725Z,30.58
2022-12-03T02:45:43.301Z,23.73
2022-12-03T02:48:19.551Z,30.98
2022-12-03T02:50:53.594Z,29.17
2022-12-03T02:53:27.674Z,24.90
2022-12-03T02:55:57.197Z,26.63
2022-12-03T02:58:25.785Z,25.88
2022-12-03T03:00:54.231Z,27.35
2022-12-03T03:03:22.180Z,28.10
2022-12-03T03:05:49.799Z,23.52
2022-12-03T03:08:18.028Z,28.95
2022-12-03T03:10:46.569Z,28.55
2022-12-03T03:13:17.404Z,28.08
2022-12-03T03:15:44.615Z,31.80
2022-12-03T03:18:13.052Z,27.73
2022-12-03T03:20:41.072Z,31.40
2022-12-03T03:23:19.492Z,28.73
2022-12-03T03:25:56.901Z,26.02
2022-12-03T03:28:24.538Z,29.27
2022-12-03T03:30:51.618Z,31.33
2022-12-03T03:33:18.452Z,23.92
2022-12-03T03:35:48.177Z,29.58
2022-12-03T03:38:19.277Z,28.00
2022-12-03T03:40:48.565Z,25.50
2022-12-03T03:43:15.584Z,25.45
2022-12-03T03:45:43.668Z,26.70
2022-12-03T03:48:11.380Z,26.88
2022-12-03T03:50:38.316Z,28.00
2022-12-03T03:53:05.600Z,26.70
2022-12-03T03:55:32.419Z,26.25
2022-12-03T03:57:59.244Z,26.98
2022-12-03T04:00:26.242Z,28.92
2022-12-03T04:02:54.324Z,25.05
2022-12-03T04:05:23.232Z,27.50
2022-12-03T04:07:50.356Z,27.85
2022-12-03T04:10:35.925Z,26.48
2022-12-03T04:13:03.060Z,27.77
2022-12-03T04:15:30.211Z,30.23
2022-12-03T04:18:16.032Z,26.83
2022-12-03T04:20:43.083Z,28.15
2022-12-03T04:23:09.979Z,29.85
2022-12-03T04:25:55.269Z,30.10
2022-12-03T04:28:40.851Z,29.38
2022-12-03T04:31:26.209Z,26.53
2022-12-03T04:34:11.805Z,28.25
2022-12-03T04:36:38.909Z,24.08
2022-12-03T04:39:07.676Z,26.88
2022-12-03T04:41:34.337Z,28.13
2022-12-03T04:44:24.014Z,28.30
2022-12-03T04:46:50.785Z,29.33
2022-12-03T04:49:17.462Z,24.60
2022-12-03T04:51:44.198Z,26.60
2022-12-03T04:54:10.944Z,28.17
2022-12-03T04:56:37.608Z,33.87
2022-12-03T04:59:04.325Z,33.40
2022-12-03T05:01:31.085Z,28.70
2022-12-03T05:03:57.841Z,32.28
2022-12-03T05:06:24.507Z,28.38
2022-12-03T05:08:51.239Z,29.80
2022-12-03T05:11:17.895Z,28.95
2022-12-03T05:13:44.618Z,26.73
2022-12-03T05:16:11.304Z,28.83
2022-12-03T05:18:38.108Z,29.02
2022-12-03T05:21:05.154Z,28.63
2022-12-03T05:23:31.839Z,23.60
2022-12-03T05:25:58.597Z,30.67
2022-12-03T05:28:25.447Z,27.08
2022-12-03T05:30:52.424Z,31.90
2022-12-03T05:33:20.392Z,29.47
2022-12-03T05:35:47.604Z,27.70
2022-12-03T05:38:14.531Z,31.35
2022-12-03T05:40:41.239Z,30.35
2022-12-03T05:43:08.021Z,28.38
2022-12-03T05:45:36.227Z,28.27
2022-12-03T05:48:04.572Z,28.67
2022-12-03T05:50:33.354Z,30.27
2022-12-03T05:53:00.361Z,30.65
2022-12-03T05:55:28.007Z,29.05
2022-12-03T05:57:55.326Z,29.67
2022-12-03T06:00:28.420Z,23.00
2022-12-03T06:02:55.569Z,33.90
2022-12-03T06:05:23.235Z,33.97
2022-12-03T06:07:51.518Z,29.73
2022-12-03T06:10:21.848Z,25.23
2022-12-03T06:12:48.628Z,19.17
2022-12-03T06:15:15.804Z,31.23
2022-12-03T06:17:42.821Z,23.60
2022-12-03T06:20:14.844Z,29.02
2022-12-03T06:22:41.961Z,32.33
2022-12-03T06:25:09.343Z,30.05
2022-12-03T06:27:36.425Z,25.83
2022-12-03T06:30:04.104Z,28.40
2022-12-03T06:32:30.893Z,26.58
2022-12-03T06:34:57.589Z,29.93
2022-12-03T06:37:24.324Z,31.13
2022-12-03T06:39:51.057Z,32.80
2022-12-03T06:42:18.028Z,30.92
2022-12-03T06:44:44.760Z,31.60
2022-12-03T06:47:11.501Z,35.33
2022-12-03T06:49:38.289Z,28.70
2022-12-03T06:52:05.164Z,33.83
2022-12-03T06:54:31.893Z,34.35
2022-12-03T06:56:58.696Z,36.58
2022-12-03T06:59:25.472Z,38.63
2022-12-03T07:01:52.256Z,35.30
2022-12-03T07:04:19.114Z,35.85
2022-12-03T07:06:45.791Z,36.40
2022-12-03T07:09:12.548Z,35.53
2022-12-03T07:11:41.990Z,38.63
2022-12-03T07:14:11.297Z,33.35
2022-12-03T07:16:39.031Z,38.63
2022-12-03T07:19:06.898Z,35.40
2022-12-03T07:21:33.871Z,35.72
2022-12-03T07:24:00.741Z,35.97
2022-12-03T07:26:27.578Z,35.50
2022-12-03T07:28:54.359Z,33.17
2022-12-03T07:31:21.080Z,31.98
2022-12-03T07:33:47.884Z,35.17
2022-12-03T07:36:14.614Z,31.80
2022-12-03T07:38:41.348Z,34.67
2022-12-03T07:41:08.108Z,31.88
2022-12-03T07:43:34.876Z,30.90
2022-12-03T07:46:01.696Z,29.02
2022-12-03T07:48:28.428Z,33.83
2022-12-03T07:50:55.183Z,31.90
2022-12-03T07:53:22.212Z,32.45
2022-12-03T07:55:48.940Z,30.25
2022-12-03T07:58:15.656Z,32.58
2022-12-03T08:00:42.474Z,30.83
2022-12-03T08:03:09.200Z,31.83
2022-12-03T08:05:35.976Z,33.15
2022-12-03T08:08:02.834Z,33.65
2022-12-03T08:10:29.559Z,32.05
2022-12-03T08:12:59.541Z,33.17
2022-12-03T08:15:33.639Z,32.75
2022-12-03T08:18:12.329Z,33.65
2022-12-03T08:20:41.070Z,35.00
2022-12-03T08:23:13.743Z,33.22
2022-12-03T08:25:40.517Z,31.50
2022-12-03T08:28:21.796Z,32.88
2022-12-03T08:31:11.986Z,32.08
2022-12-03T08:33:40.064Z,30.45
2022-12-03T08:36:14.620Z,31.00
2022-12-03T08:38:42.919Z,29.27
2022-12-03T08:41:15.505Z,32.03
2022-12-03T08:43:43.873Z,29.73
2022-12-03T08:46:19.450Z,27.63
2022-12-03T08:48:48.942Z,33.58
2022-12-03T08:51:25.276Z,29.17
2022-12-03T08:54:01.774Z,30.30
2022-12-03T08:56:33.624Z,30.05
2022-12-03T08:59:18.859Z,35.55
2022-12-03T09:01:47.201Z,36.83
2022-12-03T09:04:30.926Z,30.83
2022-12-03T09:06:59.692Z,33.60
2022-12-03T09:09:26.916Z,32.63
2022-12-03T09:11:54.698Z,35.10
2022-12-03T09:14:22.789Z,35.22
2022-12-03T09:16:52.294Z,32.67
2022-12-03T09:19:19.125Z,32.97
2022-12-03T09:21:45.813Z,34.20
2022-12-03T09:24:12.818Z,32.28
2022-12-03T09:26:39.592Z,37.72
2022-12-03T09:29:11.719Z,33.67
2022-12-03T09:31:39.332Z,32.33
2022-12-03T09:34:07.211Z,37.10
2022-12-03T09:36:34.180Z,37.45
2022-12-03T09:39:00.914Z,35.60
2022-12-03T09:41:28.612Z,38.30
2022-12-03T09:44:05.304Z,35.35
2022-12-03T09:46:35.101Z,39.90
2022-12-03T09:49:03.095Z,41.83
2022-12-03T09:51:33.782Z,40.65
2022-12-03T09:54:02.957Z,41.87
2022-12-03T09:56:29.921Z,40.55
2022-12-03T09:58:56.705Z,39.65
2022-12-03T10:01:26.753Z,37.33
2022-12-03T10:03:56.084Z,38.00
2022-12-03T10:06:24.194Z,38.03
2022-12-03T10:08:54.577Z,40.28
2022-12-03T10:11:24.411Z,39.35
2022-12-03T10:13:51.804Z,36.28
2022-12-03T10:16:20.861Z,32.15
2022-12-03T10:18:54.354Z,33.90
2022-12-03T10:21:24.331Z,37.35
2022-12-03T10:24:16.924Z,41.05
2022-12-03T10:26:45.048Z,40.38
2022-12-03T10:29:34.269Z,41.97
2022-12-03T10:32:08.804Z,36.30
2022-12-03T10:34:41.515Z,36.92
2022-12-03T10:37:16.139Z,43.03
2022-12-03T10:40:08.186Z,41.75
2022-12-03T10:42:38.662Z,41.50
2022-12-03T10:45:16.186Z,42.47
2022-12-03T10:47:44.518Z,38.25
2022-12-03T10:50:19.568Z,42.00
2022-12-03T10:52:46.858Z,44.15
2022-12-03T10:55:14.893Z,39.60
2022-12-03T10:57:45.632Z,36.00
2022-12-03T11:00:20.555Z,38.22
2022-12-03T11:02:54.925Z,39.05
2022-12-03T11:05:26.932Z,31.98
2022-12-03T11:07:54.130Z,36.05
2022-12-03T11:10:21.423Z,33.47
2022-12-03T11:13:25.865Z,34.15
2022-12-03T11:15:53.319Z,36.60
2022-12-03T11:18:38.563Z,34.63
2022-12-03T11:21:07.088Z,32.53
2022-12-03T11:23:48.579Z,31.63
2022-12-03T11:26:18.906Z,33.88
2022-12-03T11:28:46.076Z,37.10
2022-12-03T11:31:39.322Z,33.28
2022-12-03T11:34:18.348Z,33.53
2022-12-03T11:37:10.122Z,40.00
2022-12-03T11:39:52.218Z,35.53
2022-12-03T11:42:28.406Z,38.03
2022-12-03T11:45:04.188Z,41.75
2022-12-03T11:47:38.199Z,40.42
2022-12-03T11:50:39.041Z,41.73
2022-12-03T11:53:17.181Z,40.05
2022-12-03T11:55:48.657Z,42.33
2022-12-03T11:58:20.051Z,46.03
2022-12-03T12:00:55.816Z,46.05
2022-12-03T12:03:33.083Z,43.07
2022-12-03T12:06:18.248Z,46.55
2022-12-03T12:08:51.201Z,45.45
2022-12-03T12:11:26.068Z,45.13
2022-12-03T12:14:00.412Z,49.90
2022-12-03T12:16:36.272Z,49.00
2022-12-03T12:19:32.400Z,49.85
2022-12-03T12:22:38.352Z,44.50
2022-12-03T12:25:29.896Z,47.40
2022-12-03T12:27:57.563Z,41.90
2022-12-03T12:30:24.339Z,46.57
2022-12-03T12:33:08.192Z,38.60
2022-12-03T12:35:36.723Z,46.80
2022-12-03T12:38:06.619Z,45.95
2022-12-03T12:40:36.777Z,41.45
2022-12-03T12:43:24.274Z,38.77
2022-12-03T12:45:54.845Z,36.00
2022-12-03T12:48:31.359Z,42.10
2022-12-03T12:51:11.495Z,43.75
2022-12-03T12:53:39.983Z,36.88
2022-12-03T12:56:21.625Z,36.97
2022-12-03T12:58:48.370Z,37.67
2022-12-03T13:01:30.292Z,38.45
2022-12-03T13:03:57.454Z,36.63
2022-12-03T13:06:28.190Z,35.30
2022-12-03T13:08:55.446Z,32.50
2022-12-03T13:11:25.200Z,31.55
2022-12-03T13:13:52.508Z,30.50
2022-12-03T13:16:21.387Z,30.75
2022-12-03T13:18:56.968Z,29.98
2022-12-03T13:21:44.603Z,26.93
2022-12-03T13:24:29.710Z,26.92
2022-12-03T13:26:56.973Z,26.10
2022-12-03T13:29:25.864Z,26.30
2022-12-03T13:31:58.470Z,24.17
2022-12-03T13:34:28.249Z,26.87
2022-12-03T13:36:58.595Z,24.42
2022-12-03T13:39:35.190Z,28.50
2022-12-03T13:42:41.537Z,29.50
2022-12-03T13:45:14.723Z,26.38
2022-12-03T13:47:58.809Z,21.63
2022-12-03T13:50:39.545Z,26.17
2022-12-03T13:53:26.798Z,25.35
2022-12-03T13:56:15.298Z,29.85
2022-12-03T13:58:42.012Z,28.25
2022-12-03T14:01:08.772Z,27.53
2022-12-03T14:03:35.815Z,31.15
2022-12-03T14:06:02.525Z,29.55
2022-12-03T14:08:29.201Z,29.63
2022-12-03T14:11:00.576Z,31.20
2022-12-03T14:13:27.881Z,30.70
2022-12-03T14:15:54.616Z,30.35
2022-12-03T14:18:21.512Z,32.00
2022-12-03T14:20:48.328Z,38.67
2022-12-03T14:23:15.586Z,34.45
2022-12-03T14:25:43.979Z,30.77
2022-12-03T14:28:11.051Z,42.35
2022-12-03T14:30:38.040Z,36.72
2022-12-03T14:33:04.784Z,36.25
2022-12-03T14:35:31.518Z,28.75
2022-12-03T14:37:58.183Z,32.50
2022-12-03T14:40:25.033Z,34.22
2022-12-03T14:42:52.025Z,38.70
2022-12-03T14:45:20.292Z,34.40
2022-12-03T14:47:46.956Z,40.25
2022-12-03T14:50:14.481Z,39.40
2022-12-03T14:52:41.854Z,39.80
2022-12-03T14:55:09.021Z,29.27
2022-12-03T14:57:35.793Z,36.70
2022-12-03T15:00:02.537Z,45.67
2022-12-03T15:02:30.281Z,36.50
2022-12-03T15:04:57.184Z,45.15
2022-12-03T15:07:23.869Z,39.60
2022-12-03T15:09:50.524Z,41.22
2022-12-03T15:12:17.403Z,43.78
2022-12-03T15:14:44.176Z,44.10
2022-12-03T15:17:10.908Z,49.72
2022-12-03T15:19:37.834Z,47.83
2022-12-03T15:22:04.582Z,44.75
2022-12-03T15:24:31.399Z,46.75
2022-12-03T15:26:58.175Z,45.80
2022-12-03T15:29:24.978Z,51.67
2022-12-03T15:31:51.793Z,42.47
2022-12-03T15:34:22.389Z,45.60
2022-12-03T15:36:49.752Z,43.22
2022-12-03T15:39:16.432Z,46.03
2022-12-03T15:41:43.153Z,48.35
2022-12-03T15:44:09.923Z,38.03
2022-12-03T15:46:36.707Z,46.83
2022-12-03T15:49:03.487Z,45.60
2022-12-03T15:51:30.305Z,48.13
2022-12-03T15:53:57.113Z,44.15
2022-12-03T15:56:24.086Z,34.80
2022-12-03T15:58:51.734Z,38.70
2022-12-03T16:01:18.661Z,47.17
2022-12-03T16:03:45.457Z,39.40
2022-12-03T16:06:12.776Z,38.17
2022-12-03T16:08:39.614Z,37.55
2022-12-03T16:11:06.426Z,40.15
2022-12-03T16:13:33.373Z,35.05
2022-12-03T16:16:00.230Z,39.80
2022-12-03T16:18:27.147Z,39.40
2022-12-03T16:20:53.859Z,33.97
2022-12-03T16:23:20.740Z,35.05
2022-12-03T16:25:47.530Z,31.75
2022-12-03T16:28:14.231Z,41.47
2022-12-03T16:30:41.314Z,35.10
2022-12-03T16:33:08.408Z,31.77
2022-12-03T16:35:35.163Z,32.30
2022-12-03T16:38:01.940Z,32.15
2022-12-03T16:40:28.897Z,31.20
2022-12-03T16:42:55.696Z,28.73
2022-12-03T16:45:33.287Z,32.60
2022-12-03T16:48:01.170Z,34.10
2022-12-03T16:50:30.297Z,32.15
2022-12-03T16:52:58.009Z,38.17
2022-12-03T16:55:25.067Z,37.50
2022-12-03T16:57:51.766Z,32.22
2022-12-03T17:00:21.623Z,34.70
2022-12-03T17:02:48.679Z,35.65
2022-12-03T17:05:15.489Z,37.20
2022-12-03T17:07:42.279Z,34.05
2022-12-03T17:10:09.492Z,38.17
2022-12-03T17:13:01.216Z,38.03
2022-12-03T17:15:22.916Z,39.05
2022-12-03T17:17:49.660Z,41.70
2022-12-03T17:20:17.959Z,44.38
2022-12-03T17:22:44.709Z,41.28
2022-12-03T17:25:12.047Z,42.65
2022-12-03T17:27:44.832Z,48.63
2022-12-03T17:30:13.022Z,47.37
2022-12-03T17:32:40.049Z,46.65
2022-12-03T17:35:07.571Z,46.45
2022-12-03T17:37:34.487Z,49.65
2022-12-03T17:40:01.491Z,46.17
2022-12-03T17:42:28.232Z,55.30
2022-12-03T17:44:54.913Z,47.13
2022-12-03T17:47:21.655Z,48.47
2022-12-03T17:49:48.396Z,47.60
2022-12-03T17:52:15.087Z,46.08
2022-12-03T17:55:08.321Z,41.63
2022-12-03T17:57:28.464Z,46.13
2022-12-03T17:59:55.417Z,47.45
2022-12-03T18:02:22.498Z,48.50
2022-12-03T18:04:49.276Z,49.65
2022-12-03T18:07:16.043Z,49.20
2022-12-03T18:09:42.740Z,48.45
2022-12-03T18:12:09.542Z,47.33
2022-12-03T18:14:36.286Z,50.10
2022-12-03T18:17:03.027Z,46.03
2022-12-03T18:19:29.733Z,41.50
2022-12-03T18:21:56.467Z,43.33
2022-12-03T18:24:23.394Z,47.58
2022-12-03T18:26:50.414Z,49.05
2022-12-03T18:29:17.173Z,50.13
2022-12-03T18:31:43.938Z,48.97
2022-12-03T18:34:10.654Z,46.42
2022-12-03T18:36:37.527Z,48.03
2022-12-03T18:39:06.106Z,50.85
2022-12-03T18:41:33.539Z,48.17
2022-12-03T18:44:04.348Z,45.50
2022-12-03T18:46:52.580Z,44.55
2022-12-03T18:49:17.831Z,44.65
2022-12-03T18:51:44.629Z,47.88
2022-12-03T18:54:13.432Z,48.50
2022-12-03T18:56:41.412Z,48.47
2022-12-03T18:59:08.801Z,48.35
2022-12-03T19:01:36.083Z,50.45
2022-12-03T19:04:03.030Z,46.10
2022-12-03T19:06:30.486Z,47.58
2022-12-03T19:08:57.621Z,47.87
2022-12-03T19:11:24.430Z,46.90
2022-12-03T19:13:51.844Z,49.40
2022-12-03T19:16:19.009Z,50.00
2022-12-03T19:18:45.996Z,47.40
2022-12-03T19:21:15.456Z,54.20
2022-12-03T19:23:54.442Z,45.97
2022-12-03T19:26:29.516Z,49.00
2022-12-03T19:28:56.243Z,51.92
2022-12-03T19:31:23.044Z,46.67
2022-12-03T19:33:50.731Z,52.03
2022-12-03T19:36:31.379Z,51.65
2022-12-03T19:38:59.518Z,52.40
2022-12-03T19:41:30.476Z,55.72
2022-12-03T19:43:58.096Z,50.67
2022-12-03T19:46:28.644Z,52.40
2022-12-03T19:48:55.693Z,56.38
2022-12-03T19:51:37.493Z,51.28
2022-12-03T19:54:06.779Z,51.00
2022-12-03T19:56:34.443Z,52.33
2022-12-03T19:59:01.752Z,53.40
2022-12-03T20:01:31.119Z,49.38
2022-12-03T20:03:59.874Z,48.63
2022-12-03T20:06:32.545Z,48.63
2022-12-03T20:09:05.415Z,51.92
2022-12-03T20:11:33.825Z,45.77
2022-12-03T20:14:03.372Z,47.72
2022-12-03T20:16:30.324Z,53.85
2022-12-03T20:19:00.001Z,58.97
2022-12-03T20:21:28.592Z,50.88
2022-12-03T20:23:55.385Z,43.80
2022-12-03T20:26:22.842Z,47.78
2022-12-03T20:28:50.114Z,48.05
2022-12-03T20:31:20.015Z,46.08
2022-12-03T20:33:49.683Z,47.28
2022-12-03T20:36:18.277Z,48.60
2022-12-03T20:38:45.435Z,48.00
2022-12-03T20:41:18.565Z,42.40
2022-12-03T20:43:45.796Z,49.83
2022-12-03T20:46:14.292Z,47.42
2022-12-03T20:48:43.447Z,47.23
2022-12-03T20:51:13.464Z,42.22
2022-12-03T20:53:40.920Z,47.00
2022-12-03T20:56:08.259Z,48.38
2022-12-03T20:58:35.351Z,48.20
2022-12-03T21:01:15.899Z,45.67
2022-12-03T21:03:43.692Z,43.90
2022-12-03T21:06:11.404Z,48.60
2022-12-03T21:08:42.758Z,46.05
2022-12-03T21:11:14.753Z,43.78
2022-12-03T21:13:43.374Z,38.10
2022-12-03T21:16:13.002Z,45.72
2022-12-03T21:18:40.335Z,44.45
2022-12-03T21:21:07.408Z,46.15
2022-12-03T21:23:35.286Z,44.42
2022-12-03T21:26:10.940Z,43.73
2022-12-03T21:28:39.733Z,39.83
2022-12-03T21:31:09.573Z,43.22
2022-12-03T21:33:36.869Z,43.20
2022-12-03T21:36:04.824Z,42.58
2022-12-03T21:38:32.728Z,44.53
2022-12-03T21:41:01.130Z,41.72
2022-12-03T21:43:28.332Z,44.63
2022-12-03T21:45:55.378Z,43.20
2022-12-03T21:48:22.568Z,42.05
2022-12-03T21:51:21.698Z,48.03
2022-12-03T21:53:48.485Z,43.42
2022-12-03T21:56:18.412Z,44.10
2022-12-03T21:58:45.643Z,45.42
2022-12-03T22:01:19.345Z,42.63
2022-12-03T22:03:46.317Z,44.00
2022-12-03T22:06:13.433Z,32.00
2022-12-03T22:08:40.645Z,41.90
2022-12-03T22:11:10.608Z,44.17
2022-12-03T22:13:38.976Z,47.78
2022-12-03T22:16:11.319Z,45.77
2022-12-03T22:18:38.605Z,39.63
2022-12-03T22:21:07.252Z,42.35
2022-12-03T22:23:34.565Z,39.40
2022-12-03T22:26:04.927Z,40.67
2022-12-03T22:28:32.266Z,43.33
2022-12-03T22:30:59.043Z,40.03
2022-12-03T22:33:25.980Z,42.63
2022-12-03T22:36:02.396Z,44.35
2022-12-03T22:38:30.009Z,49.90
2022-12-03T22:40:57.171Z,46.43
2022-12-03T22:43:24.080Z,47.35
2022-12-03T22:45:55.220Z,46.42
2022-12-03T22:48:23.349Z,42.60
2022-12-03T22:50:51.399Z,46.13
2022-12-03T22:53:18.740Z,45.00
2022-12-03T22:55:53.588Z,41.33
2022-12-03T22:58:20.282Z,42.97
2022-12-03T23:00:47.013Z,40.92
2022-12-03T23:03:13.796Z,38.85
2022-12-03T23:05:40.660Z,45.90
2022-12-03T23:08:12.399Z,45.10
2022-12-03T23:10:41.713Z,38.80
2022-12-03T23:13:09.660Z,42.88
2022-12-03T23:15:36.678Z,41.33
2022-12-03T23:18:03.757Z,41.10
2022-12-03T23:20:30.423Z,43.50
2022-12-03T23:22:57.076Z,40.97
2022-12-03T23:25:23.804Z,49.67
2022-12-03T23:27:50.541Z,41.58
2022-12-03T23:30:17.431Z,44.77
2022-12-03T23:32:44.417Z,45.30
2022-12-03T23:35:12.584Z,42.00
2022-12-03T23:37:42.512Z,47.70
2022-12-03T23:40:09.800Z,44.88
2022-12-03T23:42:36.466Z,42.83
2022-12-03T23:45:03.593Z,42.30
2022-12-03T23:47:30.365Z,40.85
2022-12-03T23:49:57.348Z,41.67
2022-12-03T23:52:24.573Z,43.53
2022-12-03T23:54:51.321Z,42.47
2022-12-03T23:57:18.435Z,45.72
2022-12-03T23:59:45.192Z,48.03
